createdAt,value
2022-09-05T00:02:41.880Z,19.00
2022-09-05T00:08:02.427Z,19.10
2022-09-05T00:13:09.864Z,19.00
2022-09-05T00:24:17.642Z,19.00
2022-09-05T00:24:45.715Z,19.00
2022-09-05T00:31:08.223Z,19.00
2022-09-05T00:35:29.747Z,18.90
2022-09-05T00:40:41.488Z,18.90
2022-09-05T00:45:50.032Z,18.90
2022-09-05T00:51:21.253Z,18.90
2022-09-05T00:56:36.981Z,18.80
2022-09-05T01:01:45.538Z,18.70
2022-09-05T01:07:24.765Z,18.70
2022-09-05T01:12:46.570Z,18.70
2022-09-05T01:18:21.739Z,18.60
2022-09-05T01:24:00.980Z,18.60
2022-09-05T01:29:29.449Z,18.60
2022-09-05T01:35:23.298Z,18.50
2022-09-05T01:40:44.668Z,18.40
2022-09-05T01:46:11.802Z,18.40
2022-09-05T01:51:39.995Z,18.40
2022-09-05T01:57:03.293Z,18.30
2022-09-05T02:02:22.206Z,18.30
2022-09-05T02:07:51.090Z,18.30
2022-09-05T02:13:37.157Z,18.20
2022-09-05T02:19:04.331Z,18.20
2022-09-05T02:24:34.037Z,18.20
2022-09-05T02:29:39.982Z,18.10
2022-09-05T02:34:56.804Z,18.00
2022-09-05T02:45:03.485Z,18.00
2022-09-05T02:45:52.339Z,18.00
2022-09-05T02:57:26.182Z,17.90
2022-09-05T02:57:46.251Z,17.90
2022-09-05T03:02:49.220Z,17.90
2022-09-05T03:08:05.805Z,17.90
2022-09-05T03:13:50.153Z,17.80
2022-09-05T03:19:33.915Z,17.80
2022-09-05T03:25:06.052Z,17.80
2022-09-05T03:30:12.050Z,17.70
2022-09-05T03:35:38.111Z,17.70
2022-09-05T03:40:48.906Z,17.60
2022-09-05T03:46:04.280Z,17.60
2022-09-05T03:57:05.595Z,17.60
2022-09-05T03:57:41.431Z,17.60
2022-09-05T04:08:10.404Z,17.50
2022-09-05T04:09:37.089Z,17.50
2022-09-05T04:15:10.813Z,17.50
2022-09-05T04:20:19.567Z,17.40
2022-09-05T04:25:40.034Z,17.40
2022-09-05T04:31:12.028Z,17.40
2022-09-05T04:36:43.887Z,17.40
2022-09-05T04:41:50.980Z,17.30
2022-09-05T04:46:59.037Z,17.30
2022-09-05T04:52:31.971Z,17.20
2022-09-05T04:57:56.723Z,17.30
2022-09-05T05:06:13.730Z,17.30
2022-09-05T05:08:38.000Z,17.30
2022-09-05T05:18:02.406Z,17.20
2022-09-05T05:20:39.898Z,17.30
2022-09-05T05:25:21.188Z,17.20
2022-09-05T05:30:31.332Z,17.20
2022-09-05T05:35:38.471Z,17.30
2022-09-05T05:41:00.096Z,17.20
2022-09-05T05:46:02.337Z,17.30
2022-09-05T05:52:01.151Z,17.30
2022-09-05T05:57:19.411Z,17.30
2022-09-05T06:02:38.300Z,17.40
2022-09-05T06:09:48.000Z,17.40
2022-09-05T06:15:03.578Z,17.40
2022-09-05T06:20:45.859Z,17.40
2022-09-05T06:25:32.308Z,17.50
2022-09-05T06:31:29.520Z,17.60
2022-09-05T06:36:43.932Z,17.60
2022-09-05T06:42:04.097Z,17.80
2022-09-05T06:47:24.256Z,17.80
2022-09-05T06:52:38.599Z,18.00
2022-09-05T06:58:18.194Z,18.10
2022-09-05T07:03:37.834Z,18.30
2022-09-05T07:09:00.850Z,18.50
2022-09-05T07:14:12.268Z,18.60
2022-09-05T07:19:25.413Z,18.80
2022-09-05T07:24:53.798Z,18.90
2022-09-05T07:30:01.757Z,19.10
2022-09-05T07:35:05.496Z,19.30
2022-09-05T07:40:26.112Z,19.40
2022-09-05T07:45:29.889Z,19.60
2022-09-05T07:53:31.190Z,19.90
2022-09-05T07:56:55.764Z,20.10
2022-09-05T08:01:22.783Z,20.40
2022-09-05T08:06:55.444Z,20.60
2022-09-05T08:11:49.334Z,20.90
2022-09-05T08:16:51.183Z,21.30
2022-09-05T08:21:55.846Z,21.50
2022-09-05T08:27:18.749Z,21.70
2022-09-05T08:32:38.919Z,22.00
2022-09-05T08:37:42.971Z,22.10
2022-09-05T08:45:50.670Z,22.50
2022-09-05T08:48:43.263Z,22.80
2022-09-05T08:54:12.023Z,23.10
2022-09-05T08:59:55.815Z,23.50
2022-09-05T09:05:56.653Z,23.80
2022-09-05T09:11:23.859Z,24.10
2022-09-05T09:16:58.926Z,24.30
2022-09-05T09:22:22.505Z,24.40
2022-09-05T09:27:24.274Z,24.60
2022-09-05T09:32:49.807Z,24.90
2022-09-05T09:38:16.284Z,25.10
2022-09-05T09:43:29.589Z,25.20
2022-09-05T09:48:43.339Z,25.30
2022-09-05T09:53:47.921Z,25.50
2022-09-05T09:59:09.952Z,25.60
2022-09-05T10:10:40.108Z,25.70
2022-09-05T10:10:51.045Z,25.90
2022-09-05T10:16:18.578Z,26.10
2022-09-05T10:21:43.616Z,26.10
2022-09-05T10:27:18.044Z,26.30
2022-09-05T10:35:10.731Z,26.40
2022-09-05T10:38:10.551Z,26.50
2022-09-05T10:43:23.139Z,26.60
2022-09-05T10:48:29.972Z,26.70
2022-09-05T10:54:01.392Z,26.50
2022-09-05T11:02:16.194Z,26.80
2022-09-05T11:04:46.780Z,26.90
2022-09-05T11:10:02.633Z,27.00
2022-09-05T11:15:58.846Z,27.00
2022-09-05T11:21:22.116Z,27.10
2022-09-05T11:26:40.502Z,27.00
2022-09-05T11:34:11.442Z,27.10
2022-09-05T11:39:51.197Z,27.20
2022-09-05T11:43:46.188Z,27.40
2022-09-05T11:49:04.412Z,27.50
2022-09-05T11:54:09.408Z,27.40
2022-09-05T11:59:33.024Z,27.40
2022-09-05T12:05:49.817Z,27.50
2022-09-05T12:10:46.864Z,27.60
2022-09-05T12:16:07.614Z,27.80
2022-09-05T12:21:31.859Z,27.90
2022-09-05T12:27:35.776Z,27.90
2022-09-05T12:34:02.726Z,28.10
2022-09-05T12:40:57.496Z,28.10
2022-09-05T12:44:37.558Z,28.30
2022-09-05T12:49:24.744Z,28.50
2022-09-05T12:54:59.397Z,28.60
2022-09-05T13:03:01.125Z,28.70
2022-09-05T13:06:24.689Z,28.70
2022-09-05T13:14:47.780Z,28.80
2022-09-05T13:16:53.909Z,28.80
2022-09-05T13:21:57.364Z,28.90
2022-09-05T13:27:07.623Z,29.00
2022-09-05T13:38:02.351Z,29.10
2022-09-05T13:38:28.884Z,29.00
2022-09-05T13:43:29.588Z,29.00
2022-09-05T13:54:28.432Z,29.00
2022-09-05T13:59:40.251Z,29.00
2022-09-05T14:05:19.209Z,28.90
2022-09-05T14:10:54.960Z,28.80
2022-09-05T14:16:00.597Z,28.90
2022-09-05T14:21:17.745Z,29.00
2022-09-05T14:26:30.068Z,29.00
2022-09-05T14:37:45.935Z,29.00
2022-09-05T14:38:04.434Z,29.00
2022-09-05T14:43:30.852Z,28.90
2022-09-05T14:48:53.522Z,28.80
2022-09-05T14:54:10.779Z,28.70
2022-09-05T15:03:00.308Z,28.60
2022-09-05T15:05:11.222Z,28.50
2022-09-05T15:12:14.822Z,28.40
2022-09-05T15:16:01.964Z,28.50
2022-09-05T15:21:33.423Z,28.70
2022-09-05T15:26:53.071Z,28.80
2022-09-05T15:32:16.339Z,28.90
2022-09-05T15:37:30.377Z,28.80
2022-09-05T15:42:48.633Z,28.80
2022-09-05T15:48:18.716Z,28.90
2022-09-05T15:53:30.784Z,28.90
2022-09-05T15:58:52.346Z,28.90
2022-09-05T16:06:10.714Z,28.90
2022-09-05T16:10:47.148Z,28.80
2022-09-05T16:16:01.340Z,28.70
2022-09-05T16:23:23.941Z,28.60
2022-09-05T16:26:25.690Z,28.50
2022-09-05T16:31:45.607Z,28.30
2022-09-05T16:37:08.433Z,28.20
2022-09-05T16:42:46.534Z,28.00
2022-09-05T16:48:04.109Z,27.90
2022-09-05T16:53:30.655Z,27.80
2022-09-05T16:58:39.232Z,27.60
2022-09-05T17:04:15.829Z,27.40
2022-09-05T17:09:24.625Z,27.30
2022-09-05T17:14:32.598Z,27.20
2022-09-05T17:19:44.927Z,27.10
2022-09-05T17:29:19.437Z,27.00
2022-09-05T17:36:18.380Z,26.60
2022-09-05T17:41:35.186Z,26.50
2022-09-05T17:47:03.816Z,26.30
2022-09-05T17:52:18.297Z,26.20
2022-09-05T17:57:40.102Z,26.10
2022-09-05T18:02:58.531Z,25.90
2022-09-05T18:08:00.713Z,25.70
2022-09-05T18:19:28.555Z,25.40
2022-09-05T18:24:07.950Z,25.20
2022-09-05T18:35:15.776Z,24.90
2022-09-05T18:40:45.683Z,24.70
2022-09-05T18:45:52.913Z,24.50
2022-09-05T18:51:15.489Z,24.40
2022-09-05T18:57:09.715Z,24.30
2022-09-05T19:02:32.091Z,24.10
2022-09-05T19:07:48.064Z,24.00
2022-09-05T19:13:13.073Z,23.90
2022-09-05T19:18:37.019Z,23.70
2022-09-05T19:23:52.439Z,23.60
2022-09-05T19:36:49.471Z,23.50
2022-09-05T19:37:13.410Z,23.40
2022-09-05T19:45:15.879Z,23.40
2022-09-05T19:47:49.235Z,23.30
2022-09-05T19:50:48.939Z,23.20
2022-09-05T19:55:51.514Z,23.20
2022-09-05T20:01:03.248Z,23.20
2022-09-05T20:06:14.243Z,23.10
2022-09-05T20:11:37.418Z,23.10
2022-09-05T20:16:50.418Z,23.10
2022-09-05T20:21:56.777Z,22.90
2022-09-05T20:27:00.029Z,22.90
2022-09-05T20:32:03.075Z,22.90
2022-09-05T20:43:08.230Z,22.80
2022-09-05T20:43:32.089Z,22.80
2022-09-05T20:54:09.600Z,22.70
2022-09-05T20:54:13.816Z,22.60
2022-09-05T20:58:50.015Z,22.50
2022-09-05T21:04:03.332Z,22.40
2022-09-05T21:09:51.262Z,22.30
2022-09-05T21:15:44.117Z,22.20
2022-09-05T21:21:29.611Z,22.10
2022-09-05T21:26:32.151Z,22.00
2022-09-05T21:31:57.463Z,22.00
2022-09-05T21:37:07.889Z,21.90
2022-09-05T21:42:54.791Z,21.90
2022-09-05T21:47:50.726Z,21.80
2022-09-05T21:53:15.888Z,21.80
2022-09-05T21:59:36.534Z,21.70
2022-09-05T22:03:39.279Z,21.60
2022-09-05T22:08:42.132Z,21.50
2022-09-05T22:14:03.852Z,21.40
2022-09-05T22:19:05.571Z,21.40
2022-09-05T22:24:10.705Z,21.30
2022-09-05T22:29:16.516Z,21.20
2022-09-05T22:34:18.376Z,21.10
2022-09-05T22:39:36.314Z,21.00
2022-09-05T22:44:40.112Z,21.00
2022-09-05T22:49:41.912Z,20.90
2022-09-05T22:54:43.641Z,20.90
2022-09-05T22:59:45.388Z,20.90
2022-09-05T23:04:47.167Z,20.80
2022-09-05T23:09:49.032Z,20.80
2022-09-05T23:14:50.922Z,20.80
2022-09-05T23:19:52.588Z,20.70
2022-09-05T23:24:54.269Z,20.60
2022-09-05T23:30:00.172Z,20.50
2022-09-05T23:35:01.993Z,20.50
2022-09-05T23:40:04.354Z,20.50
2022-09-05T23:45:07.880Z,20.40
2022-09-05T23:50:11.844Z,20.40
2022-09-05T23:55:16.265Z,20.40
